createdAt,value
2018-12-26T15:00:44.351Z,7.20
2018-12-26T15:03:13.885Z,6.65
2018-12-26T15:05:43.414Z,6.27
2018-12-26T15:08:12.967Z,6.16
2018-12-26T15:10:42.489Z,6.16
2018-12-26T15:13:11.847Z,5.96
2018-12-26T15:15:41.483Z,5.83
2018-12-26T15:20:23.059Z,5.86
2018-12-26T15:22:52.793Z,5.71
2018-12-26T15:25:22.251Z,5.75
2018-12-26T15:27:51.859Z,5.71
2018-12-26T15:30:28.539Z,5.70
2018-12-26T15:32:52.503Z,5.67
2018-12-26T15:35:21.919Z,5.67
2018-12-26T15:37:51.800Z,5.68
2018-12-26T15:40:21.724Z,5.70
2018-12-26T15:42:51.181Z,5.71
2018-12-26T15:45:20.798Z,5.77
2018-12-26T15:47:50.379Z,5.69
2018-12-26T15:50:19.756Z,5.68
2018-12-26T15:52:49.824Z,5.63
2018-12-26T15:55:19.367Z,5.61
2018-12-26T15:57:48.760Z,5.58
2018-12-26T16:00:18.219Z,5.58
2018-12-26T16:02:47.850Z,5.54
2018-12-26T16:05:17.235Z,5.56
2018-12-26T16:07:46.658Z,5.52
2018-12-26T16:10:16.271Z,5.53
2018-12-26T16:12:45.761Z,5.51
2018-12-26T16:15:15.186Z,5.54
2018-12-26T16:17:44.546Z,5.54
2018-12-26T16:20:15.151Z,5.54
2018-12-26T16:22:47.378Z,5.48
2018-12-26T16:25:16.749Z,5.47
2018-12-26T16:27:46.385Z,5.44
2018-12-26T16:30:16.194Z,5.39
2018-12-26T16:32:45.610Z,5.35
2018-12-26T16:35:14.819Z,5.35
2018-12-26T16:37:44.712Z,5.39
2018-12-26T16:40:14.134Z,5.32
2018-12-26T16:42:43.513Z,5.35
2018-12-26T16:45:13.116Z,5.36
2018-12-26T16:47:42.579Z,5.30
2018-12-26T16:50:12.120Z,5.36
2018-12-26T16:52:41.858Z,5.35
2018-12-26T16:55:12.151Z,5.31
2018-12-26T16:57:41.521Z,5.33
2018-12-26T17:00:15.009Z,5.32
2018-12-26T17:02:44.298Z,5.29
2018-12-26T17:05:13.687Z,5.27
2018-12-26T17:07:43.471Z,5.28
2018-12-26T17:10:17.514Z,5.27
2018-12-26T17:12:46.866Z,5.26
2018-12-26T17:15:16.746Z,5.27
2018-12-26T17:17:46.113Z,5.24
2018-12-26T17:20:15.714Z,5.19
2018-12-26T17:22:45.198Z,5.26
2018-12-26T17:25:14.859Z,5.24
2018-12-26T17:27:44.941Z,5.23
2018-12-26T17:34:35.251Z,5.81
2018-12-26T17:37:04.622Z,5.64
2018-12-26T17:39:33.994Z,5.55
2018-12-26T17:42:03.668Z,5.45
2018-12-26T17:44:33.046Z,5.34
2018-12-26T17:47:02.518Z,5.30
2018-12-26T17:49:32.401Z,5.27
2018-12-26T17:52:01.763Z,5.31
2018-12-26T17:54:33.411Z,5.31
2018-12-26T17:57:03.830Z,5.36
2018-12-26T17:59:43.700Z,5.39
2018-12-26T18:02:26.735Z,5.35
2018-12-26T18:04:56.460Z,5.42
2018-12-26T18:07:25.862Z,5.40
2018-12-26T18:09:55.341Z,5.33
2018-12-26T18:12:25.073Z,5.22
2018-12-26T18:14:54.449Z,5.24
2018-12-26T18:17:23.996Z,5.22
2018-12-26T18:19:53.549Z,5.16
2018-12-26T18:22:22.932Z,5.13
2018-12-26T18:24:52.358Z,5.15
2018-12-26T18:27:22.009Z,5.11
2018-12-26T18:29:51.626Z,5.04
2018-12-26T18:32:20.799Z,5.12
2018-12-26T18:34:50.407Z,5.05
2018-12-26T18:37:19.847Z,5.03
2018-12-26T18:39:49.357Z,4.91
2018-12-26T18:42:19.021Z,4.97
2018-12-26T18:44:48.480Z,4.99
2018-12-26T18:47:18.179Z,4.93
2018-12-26T18:49:48.055Z,4.94
2018-12-26T18:52:17.546Z,4.92
2018-12-26T18:54:46.964Z,4.87
2018-12-26T18:57:16.985Z,4.90
2018-12-26T18:59:46.465Z,4.88
2018-12-26T19:02:15.622Z,4.89
2018-12-26T19:04:45.273Z,4.85
2018-12-26T19:07:14.795Z,4.85
2018-12-26T19:09:44.439Z,4.81
2018-12-26T19:12:14.205Z,4.90
2018-12-26T19:14:43.669Z,4.84
2018-12-26T19:17:13.098Z,4.80
2018-12-26T19:19:42.840Z,4.81
2018-12-26T19:22:12.222Z,4.82
2018-12-26T19:24:41.634Z,4.88
2018-12-26T19:27:11.657Z,4.87
2018-12-26T19:29:41.027Z,4.87
2018-12-26T19:32:10.542Z,4.88
2018-12-26T19:34:40.062Z,4.89
2018-12-26T19:37:09.538Z,4.86
2018-12-26T19:39:38.974Z,4.88
2018-12-26T19:42:08.644Z,4.84
2018-12-26T19:44:38.016Z,4.81
2018-12-26T19:47:07.506Z,4.85
2018-12-26T19:49:37.397Z,4.85
2018-12-26T19:52:06.893Z,4.78
2018-12-26T19:54:36.030Z,4.75
2018-12-26T19:57:05.629Z,4.75
2018-12-26T19:59:35.260Z,4.77
2018-12-26T20:02:05.498Z,4.79
2018-12-26T20:04:34.674Z,4.73
2018-12-26T20:07:04.306Z,4.73
2018-12-26T20:09:33.419Z,4.77
2018-12-26T20:12:03.707Z,4.71
2018-12-26T20:14:33.129Z,4.71
2018-12-26T20:17:02.350Z,4.71
2018-12-26T20:19:32.359Z,4.65
2018-12-26T20:22:02.038Z,4.67
2018-12-26T20:24:31.136Z,4.69
2018-12-26T20:27:00.303Z,4.72
2018-12-26T20:29:29.844Z,4.69
2018-12-26T20:31:59.004Z,4.72
2018-12-26T20:34:28.611Z,4.79
2018-12-26T20:36:58.046Z,4.73
2018-12-26T20:39:27.258Z,4.76
2018-12-26T20:41:56.410Z,4.85
2018-12-26T20:44:25.945Z,4.84
2018-12-26T20:46:55.087Z,4.94
2018-12-26T20:49:24.237Z,4.93
2018-12-26T20:51:54.196Z,5.03
2018-12-26T20:54:23.507Z,5.09
2018-12-26T20:56:52.870Z,5.12
2018-12-26T20:59:22.595Z,5.14
2018-12-26T21:01:52.291Z,5.16
2018-12-26T21:04:21.775Z,5.28
2018-12-26T21:06:54.399Z,5.26
2018-12-26T21:09:24.228Z,5.27
2018-12-26T21:11:53.348Z,5.24
2018-12-26T21:14:22.869Z,5.25
2018-12-26T21:16:55.110Z,5.28
2018-12-26T21:19:23.402Z,5.25
2018-12-26T21:21:52.913Z,5.31
2018-12-26T21:24:22.475Z,5.25
2018-12-26T21:26:51.853Z,5.34
2018-12-26T21:29:21.675Z,5.32
2018-12-26T21:31:50.883Z,5.40
2018-12-26T21:34:20.064Z,5.32
2018-12-26T21:36:50.071Z,5.37
2018-12-26T21:39:19.257Z,5.43
2018-12-26T21:41:48.759Z,5.41
2018-12-26T21:44:18.162Z,5.42
2018-12-26T21:46:47.580Z,5.50
2018-12-26T21:49:16.723Z,5.46
2018-12-26T21:51:46.488Z,5.54
2018-12-26T21:54:15.857Z,5.52
2018-12-26T21:56:45.244Z,5.52
2018-12-26T21:59:14.654Z,5.49
2018-12-26T22:01:43.809Z,5.55
2018-12-26T22:04:13.550Z,5.57
2018-12-26T22:06:43.016Z,5.60
2018-12-26T22:09:12.548Z,5.61
2018-12-26T22:11:41.684Z,5.63
2018-12-26T22:14:11.320Z,5.61
2018-12-26T22:16:40.666Z,5.69
2018-12-26T22:19:10.072Z,5.66
2018-12-26T22:21:39.850Z,5.67
2018-12-26T22:24:09.010Z,5.62
2018-12-26T22:26:43.145Z,5.60
2018-12-26T22:29:09.720Z,5.68
2018-12-26T22:31:39.178Z,5.67
2018-12-26T22:34:08.566Z,5.67
2018-12-26T22:36:38.246Z,5.72
2018-12-26T22:39:07.799Z,5.65
2018-12-26T22:41:37.269Z,5.72
2018-12-26T22:44:06.896Z,5.65
2018-12-26T22:46:36.040Z,5.64
2018-12-26T22:49:06.275Z,5.64
2018-12-26T22:51:41.860Z,5.73
2018-12-26T22:54:07.139Z,5.70
2018-12-26T22:56:36.459Z,5.69
2018-12-26T22:59:06.186Z,5.74
2018-12-26T23:01:35.337Z,5.76
2018-12-26T23:04:06.106Z,5.75
2018-12-26T23:06:35.489Z,5.75
2018-12-26T23:09:07.867Z,5.79
2018-12-26T23:11:37.339Z,5.73
2018-12-26T23:14:06.488Z,5.74
2018-12-26T23:16:35.883Z,5.81
2018-12-26T23:19:06.536Z,5.80
2018-12-26T23:21:35.895Z,5.80
2018-12-26T23:24:05.884Z,5.77
2018-12-26T23:26:35.141Z,5.74
2018-12-26T23:29:05.620Z,5.72
2018-12-26T23:31:35.029Z,5.64
2018-12-26T23:34:04.611Z,5.69
2018-12-26T23:36:34.131Z,5.71
2018-12-26T23:39:04.467Z,5.64
2018-12-26T23:41:34.212Z,5.66
2018-12-26T23:44:03.389Z,5.62
2018-12-26T23:46:32.588Z,5.60
2018-12-26T23:49:02.419Z,5.64
2018-12-26T23:51:31.543Z,5.54
2018-12-26T23:54:01.042Z,5.49
2018-12-26T23:56:30.510Z,5.51
2018-12-26T23:59:00.065Z,5.52
